Аэропорт: Ленкорань. Ленкорань

ICAO: UBBL

METAR:
2020-08-13 12:00:00
UBBL 131200Z 13011KT 9999 NSC 29/17 Q1009 R33/CLRD// NOSIG RMK MT OP
METAR:
2020-08-13 11:06:00
TAF UBBL 131106Z 1312/1412 12006KT 9999 SCT100 TX29/1312Z TN18/1401Z TEMPO 1312/1318 15010KT BECMG 1400/1402 33010KT TEMPO 1406/1412 05008KT